Time;durP1;ratioP1;P1;durP2;ratioP2;P2;SDS_P1;SDS_P2;PMS_P1;PMS_P2;Temp;Humidity;BMP_temperature;BMP_pressure;BME280_temperature;BME280_humidity;BME280_pressure;Samples;Min_cycle;Max_cycle;Signal;HPM_P1;HPM_P2
2022/03/02 00:02:19;;;;;;;;;;;;;;;21.44;40.66;102418.34;5075378;28;2313;-58
2022/03/02 00:04:45;;;;;;;;;;;;;;;21.45;40.61;102424.88;5076178;28;2325;-58
2022/03/02 00:07:12;;;;;;;;;;;;;;;21.44;40.75;102426.22;5078885;28;2263;-57
2022/03/02 00:09:39;;;;;;;;;;;;;;;21.43;40.63;102413.94;5073679;28;2267;-58
2022/03/02 00:12:05;;;;;;;;;;;;;;;21.43;40.77;102419.72;5078964;28;2314;-58
2022/03/02 00:14:32;;;;;;;;;;;;;;;21.41;40.97;102416.69;5075861;28;2697;-58
2022/03/02 00:16:58;;;;;;;;;;;;;;;21.40;40.92;102408.66;5079258;28;2376;-58
2022/03/02 00:19:25;;;;;;;;;;;;;;;21.39;40.89;102410.00;5078737;28;2397;-58
2022/03/02 00:21:52;;;;;;;;;;;;;;;21.38;40.81;102399.88;5080976;28;2004;-58
2022/03/02 00:24:20;;;;;;;;;;;;;;;21.39;40.91;102396.34;5076589;28;2199;-57
2022/03/02 00:26:46;;;;;;;;;;;;;;;21.38;41.04;102397.75;5083652;28;2436;-58
2022/03/02 00:29:12;;;;;;;;;;;;;;;21.39;40.82;102395.59;5058363;28;2273;-58
2022/03/02 00:31:39;;;;;;;;;;;;;;;21.37;40.83;102395.47;5081886;28;2357;-58
2022/03/02 00:34:05;;;;;;;;;;;;;;;21.37;40.60;102386.81;5075473;28;2227;-58
2022/03/02 00:36:32;;;;;;;;;;;;;;;21.34;40.86;102398.22;5081493;28;2263;-58
2022/03/02 00:38:58;;;;;;;;;;;;;;;21.32;40.85;102394.44;5081890;28;1869;-58
2022/03/02 00:41:24;;;;;;;;;;;;;;;21.33;40.75;102390.94;5079281;28;2231;-58
2022/03/02 00:43:51;;;;;;;;;;;;;;;21.33;40.78;102388.06;5082940;28;2424;-58
2022/03/02 00:46:19;;;;;;;;;;;;;;;21.34;40.51;102395.34;5083008;28;2366;-58
2022/03/02 00:48:45;;;;;;;;;;;;;;;21.37;40.74;102398.34;5084944;28;2214;-58
2022/03/02 00:51:11;;;;;;;;;;;;;;;21.37;40.69;102401.22;5080670;28;2309;-58
2022/03/02 00:53:38;;;;;;;;;;;;;;;21.37;40.80;102389.69;5077733;28;2064;-57
2022/03/02 00:56:04;;;;;;;;;;;;;;;21.36;40.72;102386.06;5078345;28;2406;-58
2022/03/02 00:58:31;;;;;;;;;;;;;;;21.36;40.67;102386.06;5079180;28;2352;-58
2022/03/02 01:00:57;;;;;;;;;;;;;;;21.34;40.73;102385.94;5076937;28;2614;-58
2022/03/02 01:03:24;;;;;;;;;;;;;;;21.33;40.85;102382.31;5078577;28;2216;-58
2022/03/02 01:05:50;;;;;;;;;;;;;;;21.32;40.75;102386.53;5081944;28;2270;-58
2022/03/02 01:08:16;;;;;;;;;;;;;;;21.33;40.66;102379.44;5080509;28;2449;-57
2022/03/02 01:10:43;;;;;;;;;;;;;;;21.31;40.93;102382.16;5084981;28;2457;-58
2022/03/02 01:13:09;;;;;;;;;;;;;;;21.31;40.75;102379.28;5077217;28;2126;-58
2022/03/02 01:15:35;;;;;;;;;;;;;;;21.31;40.64;102373.53;5080678;28;2601;-58
2022/03/02 01:18:02;;;;;;;;;;;;;;;21.15;41.05;102371.69;5080503;28;2389;-58
2022/03/02 01:20:28;;;;;;;;;;;;;;;21.29;40.58;102379.16;5085006;28;2397;-58
2022/03/02 01:22:54;;;;;;;;;;;;;;;21.29;40.58;102379.16;5082689;28;2526;-58
2022/03/02 01:25:21;;;;;;;;;;;;;;;21.29;40.54;102381.28;5080268;28;2405;-58
2022/03/02 01:27:47;;;;;;;;;;;;;;;21.28;40.57;102379.75;5075846;28;2170;-58
2022/03/02 01:30:13;;;;;;;;;;;;;;;21.28;40.56;102374.78;5074664;28;2498;-58
2022/03/02 01:32:40;;;;;;;;;;;;;;;21.27;40.49;102364.59;5080878;28;2357;-58
2022/03/02 01:35:08;;;;;;;;;;;;;;;21.28;40.35;102356.72;5080047;28;2413;-58
2022/03/02 01:37:34;;;;;;;;;;;;;;;21.28;40.50;102363.25;5081881;28;2739;-58
2022/03/02 01:40:01;;;;;;;;;;;;;;;21.30;40.39;102369.16;5077497;28;2416;-58
2022/03/02 01:42:27;;;;;;;;;;;;;;;21.30;40.34;102365.50;5078260;28;2558;-58
2022/03/02 01:44:53;;;;;;;;;;;;;;;21.30;40.33;102354.75;5077781;28;2296;-58
2022/03/02 01:47:20;;;;;;;;;;;;;;;21.32;40.59;102365.63;5079747;28;2525;-57
2022/03/02 01:49:46;;;;;;;;;;;;;;;21.30;40.42;102354.75;5073149;28;2453;-58
2022/03/02 01:52:13;;;;;;;;;;;;;;;21.30;40.43;102354.75;5085743;28;2305;-58
2022/03/02 01:54:39;;;;;;;;;;;;;;;21.29;40.52;102341.69;5077936;28;2462;-58
2022/03/02 01:57:05;;;;;;;;;;;;;;;21.27;40.62;102343.69;5077405;28;2305;-58
2022/03/02 01:59:32;;;;;;;;;;;;;;;21.26;40.57;102342.19;5076327;28;2299;-58
2022/03/02 02:01:58;;;;;;;;;;;;;;;21.27;40.65;102332.16;5068256;28;2349;-57
2022/03/02 02:04:25;;;;;;;;;;;;;;;21.27;40.67;102321.38;5084666;28;2219;-57
2022/03/02 02:06:51;;;;;;;;;;;;;;;21.27;40.41;102321.38;5077000;28;2242;-57
2022/03/02 02:09:18;;;;;;;;;;;;;;;21.26;40.36;102314.13;5077873;28;2213;-58
2022/03/02 02:11:44;;;;;;;;;;;;;;;21.26;40.45;102314.13;5078479;28;2165;-58
2022/03/02 02:14:10;;;;;;;;;;;;;;;21.13;40.62;102317.56;5079778;28;2082;-59
2022/03/02 02:16:37;;;;;;;;;;;;;;;21.02;40.75;102312.50;5085412;28;2376;-58
2022/03/02 02:19:03;;;;;;;;;;;;;;;21.21;40.54;102311.59;5074198;28;2284;-58
2022/03/02 02:21:29;;;;;;;;;;;;;;;21.21;40.41;102300.84;5073536;28;2305;-58
2022/03/02 02:23:56;;;;;;;;;;;;;;;21.18;40.33;102301.31;5077898;28;2414;-58
2022/03/02 02:26:22;;;;;;;;;;;;;;;21.22;40.39;102307.34;5079376;28;2250;-58
2022/03/02 02:28:49;;;;;;;;;;;;;;;21.22;40.44;102307.34;5072663;28;2212;-58
2022/03/02 02:31:15;;;;;;;;;;;;;;;21.23;40.21;102303.81;5072157;28;2573;-58
2022/03/02 02:33:42;;;;;;;;;;;;;;;21.24;40.28;102299.59;5078997;28;2219;-58
2022/03/02 02:36:11;;;;;;;;;;;;;;;21.25;40.39;102309.72;5078576;28;2169;-58
2022/03/02 02:38:38;;;;;;;;;;;;;;;21.25;40.40;102300.34;5073514;28;2232;-58
2022/03/02 02:41:04;;;;;;;;;;;;;;;21.25;40.31;102294.56;5076985;28;2258;-58
2022/03/02 02:43:30;;;;;;;;;;;;;;;21.25;40.49;102289.56;5079909;28;2259;-59
2022/03/02 02:45:57;;;;;;;;;;;;;;;21.25;40.47;102295.31;5074553;28;2076;-58
2022/03/02 02:48:23;;;;;;;;;;;;;;;21.23;40.35;102285.78;5075946;28;2188;-58
2022/03/02 02:50:49;;;;;;;;;;;;;;;21.22;40.52;102287.94;5073578;28;2312;-59
2022/03/02 02:53:16;;;;;;;;;;;;;;;21.21;40.39;102279.91;5076147;28;2320;-58
2022/03/02 02:55:42;;;;;;;;;;;;;;;21.20;40.54;102287.78;5079247;28;2058;-58
2022/03/02 02:58:09;;;;;;;;;;;;;;;21.22;40.32;102284.31;5074678;28;2455;-58
2022/03/02 03:00:36;;;;;;;;;;;;;;;21.22;40.26;102278.53;5072832;28;2228;-58
2022/03/02 03:03:02;;;;;;;;;;;;;;;21.20;40.17;102264.75;5079437;28;2239;-59
2022/03/02 03:05:30;;;;;;;;;;;;;;;21.20;40.20;102270.50;5080696;28;2303;-58
2022/03/02 03:07:56;;;;;;;;;;;;;;;21.19;40.15;102271.88;5079763;28;2243;-59
2022/03/02 03:10:23;;;;;;;;;;;;;;;21.19;40.13;102269.00;5081636;28;2271;-58
2022/03/02 03:12:49;;;;;;;;;;;;;;;21.18;40.17;102273.25;5076993;28;2458;-59
2022/03/02 03:15:16;;;;;;;;;;;;;;;21.18;40.23;102278.25;5083091;28;2255;-58
2022/03/02 03:17:42;;;;;;;;;;;;;;;21.19;40.06;102268.22;5084302;28;2266;-58
2022/03/02 03:20:09;;;;;;;;;;;;;;;21.18;40.10;102261.72;5077647;28;2391;-58
2022/03/02 03:22:36;;;;;;;;;;;;;;;21.20;40.16;102267.63;5078273;28;2338;-58
2022/03/02 03:25:02;;;;;;;;;;;;;;;21.21;40.17;102254.75;5077928;28;2279;-58
2022/03/02 03:27:29;;;;;;;;;;;;;;;21.21;40.25;102260.50;5081740;28;2149;-58
2022/03/02 03:29:55;;;;;;;;;;;;;;;21.22;40.33;102255.50;5077789;28;2251;-59
2022/03/02 03:32:22;;;;;;;;;;;;;;;21.22;40.39;102262.00;5077820;28;2359;-58
2022/03/02 03:34:48;;;;;;;;;;;;;;;21.22;40.25;102258.38;5082268;28;2301;-58
2022/03/02 03:37:14;;;;;;;;;;;;;;;21.20;40.39;102253.22;5076691;28;2092;-58
2022/03/02 03:39:42;;;;;;;;;;;;;;;21.20;40.48;102253.22;5078489;28;2488;-59
2022/03/02 03:42:09;;;;;;;;;;;;;;;21.18;40.30;102255.97;5076688;28;2189;-58
2022/03/02 03:44:35;;;;;;;;;;;;;;;21.17;40.28;102248.72;5082019;28;2198;-58
2022/03/02 03:47:02;;;;;;;;;;;;;;;21.17;40.25;102250.84;5077138;28;2371;-58
2022/03/02 03:49:28;;;;;;;;;;;;;;;21.17;40.17;102254.47;5077913;28;2283;-59
2022/03/02 03:51:54;;;;;;;;;;;;;;;21.17;40.00;102248.72;5077568;28;2347;-58
2022/03/02 03:54:21;;;;;;;;;;;;;;;21.17;40.14;102247.97;5076390;28;2390;-58
2022/03/02 03:56:47;;;;;;;;;;;;;;;21.17;40.06;102248.72;5077081;28;2384;-58
2022/03/02 03:59:13;;;;;;;;;;;;;;;21.17;40.19;102245.09;5079730;28;2817;-58
2022/03/02 04:01:40;;;;;;;;;;;;;;;21.18;40.21;102235.06;5082538;28;2310;-59
2022/03/02 04:04:07;;;;;;;;;;;;;;;21.18;40.26;102232.91;5079958;28;2334;-59
2022/03/02 04:06:33;;;;;;;;;;;;;;;21.19;40.19;102237.31;5079900;28;2413;-58
2022/03/02 04:08:59;;;;;;;;;;;;;;;21.20;40.16;102247.47;5075841;28;2342;-58
2022/03/02 04:11:26;;;;;;;;;;;;;;;21.22;40.24;102250.47;5076624;28;2612;-58
2022/03/02 04:13:53;;;;;;;;;;;;;;;21.21;40.21;102245.31;5074263;28;2240;-59
2022/03/02 04:16:19;;;;;;;;;;;;;;;21.20;40.24;102240.94;5071317;28;2449;-58
2022/03/02 04:18:46;;;;;;;;;;;;;;;21.19;40.08;102248.84;5076786;28;2321;-59
2022/03/02 04:21:12;;;;;;;;;;;;;;;21.19;40.18;102239.44;5076143;28;2364;-59
2022/03/02 04:23:39;;;;;;;;;;;;;;;21.17;40.05;102242.94;5076070;28;2309;-58
2022/03/02 04:26:05;;;;;;;;;;;;;;;21.17;40.20;102240.06;5079451;28;2465;-58
2022/03/02 04:28:32;;;;;;;;;;;;;;;21.14;40.25;102244.16;5074949;28;2282;-59
2022/03/02 04:30:58;;;;;;;;;;;;;;;21.06;40.16;102243.66;5079167;28;2208;-59
2022/03/02 04:33:24;;;;;;;;;;;;;;;21.11;40.18;102251.19;5078990;28;2203;-58
2022/03/02 04:35:51;;;;;;;;;;;;;;;21.09;40.17;102248.16;5078600;28;2332;-58
2022/03/02 04:38:17;;;;;;;;;;;;;;;21.10;39.87;102249.69;5079044;28;2447;-59
2022/03/02 04:40:43;;;;;;;;;;;;;;;21.11;40.14;102246.16;5078737;28;2311;-58
2022/03/02 04:43:10;;;;;;;;;;;;;;;21.10;40.03;102244.69;5082641;28;2191;-58
2022/03/02 04:45:36;;;;;;;;;;;;;;;21.12;40.06;102241.19;5079664;28;2368;-58
2022/03/02 04:48:02;;;;;;;;;;;;;;;21.13;39.97;102240.53;5080169;28;2569;-59
2022/03/02 04:50:29;;;;;;;;;;;;;;;21.14;40.06;102244.16;5079392;28;2765;-58
2022/03/02 04:52:55;;;;;;;;;;;;;;;21.15;40.00;102242.06;5073330;28;2400;-58
2022/03/02 04:55:21;;;;;;;;;;;;;;;21.15;39.95;102234.16;5078882;28;2254;-58
2022/03/02 04:57:55;;;;;;;;;;;;;;;21.15;39.91;102237.06;5075149;28;2420;-58
2022/03/02 05:00:22;;;;;;;;;;;;;;;21.16;40.10;102244.31;5080012;28;2408;-58
2022/03/02 05:02:48;;;;;;;;;;;;;;;21.15;40.20;102233.44;5077455;28;2356;-58
2022/03/02 05:05:15;;;;;;;;;;;;;;;21.14;40.09;102226.88;5078082;28;2317;-58
2022/03/02 05:07:42;;;;;;;;;;;;;;;21.13;40.21;102220.38;5077339;28;2618;-58
2022/03/02 05:10:08;;;;;;;;;;;;;;;21.11;40.15;102222.38;5085277;28;2691;-58
2022/03/02 05:12:35;;;;;;;;;;;;;;;21.13;39.93;102226.16;5082382;28;2232;-59
2022/03/02 05:15:01;;;;;;;;;;;;;;;21.12;39.88;102221.78;5081119;28;2293;-59
2022/03/02 05:17:27;;;;;;;;;;;;;;;21.11;39.98;102219.50;5080917;28;2498;-58
2022/03/02 05:19:54;;;;;;;;;;;;;;;21.10;40.13;102221.63;5080612;28;2385;-58
2022/03/02 05:22:20;;;;;;;;;;;;;;;21.11;39.93;102216.63;5083095;28;2227;-59
2022/03/02 05:24:47;;;;;;;;;;;;;;;21.09;39.87;102223.00;5078155;28;2235;-58
2022/03/02 05:27:13;;;;;;;;;;;;;;;21.10;40.05;102215.88;5078924;28;2357;-58
2022/03/02 05:29:40;;;;;;;;;;;;;;;21.09;40.08;102222.25;5081528;28;2170;-58
2022/03/02 05:32:06;;;;;;;;;;;;;;;21.11;39.98;102223.13;5085750;28;2335;-58
2022/03/02 05:34:33;;;;;;;;;;;;;;;21.12;39.75;102224.66;5077605;28;2223;-58
2022/03/02 05:36:59;;;;;;;;;;;;;;;21.12;39.92;102218.88;5081028;28;2234;-58
2022/03/02 05:39:25;;;;;;;;;;;;;;;21.13;39.71;102219.63;5080865;28;2271;-58
2022/03/02 05:41:52;;;;;;;;;;;;;;;21.15;39.83;102216.88;5074713;28;2241;-58
2022/03/02 05:44:18;;;;;;;;;;;;;;;21.16;39.73;102223.41;5078336;28;2375;-59
2022/03/02 05:46:44;;;;;;;;;;;;;;;21.28;39.97;102218.41;5084502;28;2459;-60
2022/03/02 05:49:12;;;;;;;;;;;;;;;21.30;40.34;102224.31;5077741;28;2386;-59
2022/03/02 05:51:39;;;;;;;;;;;;;;;21.17;40.17;102225.66;5078421;28;2817;-60
2022/03/02 05:54:05;;;;;;;;;;;;;;;20.06;36.96;102226.91;5076515;28;2401;-60
2022/03/02 05:56:32;;;;;;;;;;;;;;;20.48;36.67;102216.06;5079479;28;2217;-60
2022/03/02 05:58:58;;;;;;;;;;;;;;;20.77;36.85;102224.50;5077868;28;2134;-60
2022/03/02 06:01:24;;;;;;;;;;;;;;;20.87;37.60;102225.19;5083018;28;2544;-60
2022/03/02 06:03:51;;;;;;;;;;;;;;;20.91;37.54;102227.56;5077860;28;2247;-60
2022/03/02 06:06:37;;;;;;;;;;;;;;;20.97;38.10;102224.34;5079443;28;2148;-60
2022/03/02 06:09:04;;;;;;;;;;;;;;;20.99;38.23;102222.34;5076237;28;2365;-60
2022/03/02 06:11:31;;;;;;;;;;;;;;;20.99;38.68;102221.59;5078113;28;2362;-60
2022/03/02 06:13:57;;;;;;;;;;;;;;;20.96;38.92;102222.81;5086007;28;2228;-60
2022/03/02 06:16:24;;;;;;;;;;;;;;;20.93;39.10;102214.03;5083952;28;2476;-60
2022/03/02 06:18:50;;;;;;;;;;;;;;;20.93;39.39;102216.91;5075256;28;2425;-60
2022/03/02 06:21:29;;;;;;;;;;;;;;;20.95;39.35;102218.44;5085324;28;2318;-60
2022/03/02 06:23:56;;;;;;;;;;;;;;;20.95;39.39;102218.44;5082724;28;2312;-60
2022/03/02 06:26:25;;;;;;;;;;;;;;;20.95;39.64;102221.31;5076126;28;2340;-60
2022/03/02 06:28:51;;;;;;;;;;;;;;;20.96;39.52;102222.81;5084045;28;2438;-60
2022/03/02 06:31:21;;;;;;;;;;;;;;;21.02;39.41;102231.88;5079266;28;2250;-60
2022/03/02 06:33:47;;;;;;;;;;;;;;;21.05;39.45;102228.50;5080392;28;2049;-60
2022/03/02 06:36:13;;;;;;;;;;;;;;;21.06;39.60;102230.00;5078198;28;2159;-60
2022/03/02 06:38:40;;;;;;;;;;;;;;;21.07;39.51;102220.00;5079446;28;2700;-60
2022/03/02 06:41:06;;;;;;;;;;;;;;;21.13;40.37;102231.16;5080304;28;2373;-60
2022/03/02 06:43:33;;;;;;;;;;;;;;;21.14;40.36;102232.66;5082334;28;2239;-60
2022/03/02 06:46:07;;;;;;;;;;;;;;;21.16;40.42;102229.91;5078209;28;2529;-60
2022/03/02 06:48:52;;;;;;;;;;;;;;;21.13;40.36;102231.16;5083452;28;2438;-61
2022/03/02 06:51:20;;;;;;;;;;;;;;;21.13;40.46;102236.91;5076003;28;3106;-62
2022/03/02 06:53:46;;;;;;;;;;;;;;;21.12;40.79;102238.31;5074865;28;2080;-62
2022/03/02 06:56:12;;;;;;;;;;;;;;;21.14;40.75;102241.28;5064544;28;2431;-61
2022/03/02 06:58:46;;;;;;;;;;;;;;;21.13;40.57;102231.16;5082143;28;2418;-61
2022/03/02 07:01:13;;;;;;;;;;;;;;;21.11;40.70;102231.03;5063996;28;2591;-61
2022/03/02 07:03:45;;;;;;;;;;;;;;;21.11;40.62;102233.91;5083816;28;1854;-61
2022/03/02 07:06:12;;;;;;;;;;;;;;;21.15;40.81;102234.16;5079998;28;2230;-62
2022/03/02 07:08:38;;;;;;;;;;;;;;;21.16;40.76;102229.91;5081416;28;2193;-62
2022/03/02 07:11:04;;;;;;;;;;;;;;;21.15;40.72;102228.41;5065412;28;1741;-61
2022/03/02 07:13:32;;;;;;;;;;;;;;;21.14;40.65;102229.78;5081129;28;2243;-64
2022/03/02 07:15:58;;;;;;;;;;;;;;;21.12;40.65;102230.41;5064039;28;2129;-61
2022/03/02 07:18:25;;;;;;;;;;;;;;;21.13;40.59;102220.38;5067192;28;3629;-62
2022/03/02 07:20:51;;;;;;;;;;;;;;;21.17;41.46;102231.44;5075125;28;2096;-61
2022/03/02 07:23:18;;;;;;;;;;;;;;;21.14;41.91;102226.88;5062070;28;3003;-62
2022/03/02 07:25:45;;;;;;;;;;;;;;;21.13;41.93;102222.50;5062439;28;3082;-61
2022/03/02 07:28:12;;;;;;;;;;;;;;;21.08;41.65;102220.75;5065663;28;3301;-62
2022/03/02 07:30:38;;;;;;;;;;;;;;;21.07;41.92;102220.00;5062277;28;1776;-61
2022/03/02 07:33:05;;;;;;;;;;;;;;;21.07;41.79;102222.13;5078236;28;2125;-62
2022/03/02 07:35:35;;;;;;;;;;;;;;;21.11;41.86;102225.25;5074570;28;1668;-61
2022/03/02 07:38:02;;;;;;;;;;;;;;;21.14;41.97;102226.88;5071787;28;1620;-61
2022/03/02 07:40:28;;;;;;;;;;;;;;;21.16;41.82;102227.03;5073119;28;1991;-62
2022/03/02 07:42:55;;;;;;;;;;;;;;;21.16;41.76;102218.38;5071596;28;1549;-62
2022/03/02 07:45:21;;;;;;;;;;;;;;;21.14;41.84;102221.13;5079683;28;2072;-62
2022/03/02 07:47:47;;;;;;;;;;;;;;;21.11;41.83;102210.84;5074993;28;1770;-63
2022/03/02 07:50:14;;;;;;;;;;;;;;;21.12;41.77;102218.13;5075713;28;1502;-69
2022/03/02 07:52:45;;;;;;;;;;;;;;;21.12;41.46;102218.88;5070324;28;1755;-68
2022/03/02 07:55:11;;;;;;;;;;;;;;;21.17;41.38;102213.41;5073884;28;1771;-71
2022/03/02 07:57:39;;;;;;;;;;;;;;;21.20;41.22;102215.78;5062496;28;2189;-70
2022/03/02 08:00:05;;;;;;;;;;;;;;;21.22;41.24;102221.66;5074847;28;2183;-70
2022/03/02 08:02:32;;;;;;;;;;;;;;;21.24;41.03;102235.47;5071204;28;1576;-72
2022/03/02 08:04:58;;;;;;;;;;;;;;;21.24;41.12;102209.53;5070861;28;1664;-71
2022/03/02 08:07:25;;;;;;;;;;;;;;;21.25;41.06;102216.78;5061184;28;1874;-71
2022/03/02 08:09:51;;;;;;;;;;;;;;;21.24;41.03;102216.03;5071102;28;1660;-71
2022/03/02 08:12:19;;;;;;;;;;;;;;;21.25;41.00;102223.28;5055013;28;1635;-71
2022/03/02 08:14:45;;;;;;;;;;;;;;;21.24;41.09;102224.69;5071096;28;1747;-71
2022/03/02 08:17:11;;;;;;;;;;;;;;;21.25;40.98;102220.41;5070716;28;1587;-71
2022/03/02 08:19:38;;;;;;;;;;;;;;;21.25;41.08;102216.78;5071340;28;1902;-71
2022/03/02 08:22:06;;;;;;;;;;;;;;;21.25;40.93;102220.41;5071389;28;1545;-71
2022/03/02 08:24:32;;;;;;;;;;;;;;;21.27;40.86;102211.91;5074719;28;1751;-72
2022/03/02 08:26:59;;;;;;;;;;;;;;;21.28;40.98;102212.66;5070299;28;1766;-71
2022/03/02 08:29:26;;;;;;;;;;;;;;;21.29;40.91;102209.16;5076932;28;1771;-71
2022/03/02 08:31:52;;;;;;;;;;;;;;;21.26;41.00;102204.66;5069859;28;1589;-71
2022/03/02 08:34:18;;;;;;;;;;;;;;;21.30;40.88;102212.78;5070276;28;1787;-72
2022/03/02 08:36:45;;;;;;;;;;;;;;;21.32;40.86;102210.78;5079699;28;1717;-72
2022/03/02 08:39:11;;;;;;;;;;;;;;;21.32;40.99;102213.66;5074947;28;1898;-71
2022/03/02 08:41:39;;;;;;;;;;;;;;;21.33;40.90;102209.41;5075275;28;1659;-72
2022/03/02 08:44:06;;;;;;;;;;;;;;;21.33;40.95;102203.66;5074837;28;1723;-72
2022/03/02 08:46:32;;;;;;;;;;;;;;;21.32;40.96;102196.38;5074085;28;1593;-72
2022/03/02 08:48:59;;;;;;;;;;;;;;;21.32;41.04;102202.13;5074411;28;1514;-72
2022/03/02 08:51:25;;;;;;;;;;;;;;;21.32;40.92;102196.38;5074561;28;1723;-72
2022/03/02 08:53:55;;;;;;;;;;;;;;;21.32;40.78;102190.59;5079295;28;1573;-72
2022/03/02 08:56:21;;;;;;;;;;;;;;;21.36;41.01;102190.13;5076131;28;1791;-72
2022/03/02 08:58:48;;;;;;;;;;;;;;;21.33;40.73;102189.25;5077774;28;1898;-72
2022/03/02 09:01:15;;;;;;;;;;;;;;;21.34;40.88;102192.88;5065069;28;2418;-72
2022/03/02 09:03:42;;;;;;;;;;;;;;;21.32;40.76;102184.84;5085329;28;1700;-72
2022/03/02 09:06:08;;;;;;;;;;;;;;;21.32;40.91;102189.84;5075168;28;1743;-72
2022/03/02 09:08:36;;;;;;;;;;;;;;;21.33;40.79;102192.13;5075709;28;1786;-72
2022/03/02 09:11:02;;;;;;;;;;;;;;;21.34;40.68;102190.75;5073927;28;1775;-72
2022/03/02 09:13:28;;;;;;;;;;;;;;;21.34;40.67;102192.88;5077231;28;1728;-72
2022/03/02 09:15:55;;;;;;;;;;;;;;;21.36;40.85;102190.13;5073649;28;1795;-72
2022/03/02 09:18:21;;;;;;;;;;;;;;;21.37;40.80;102180.09;5072806;28;1767;-72
2022/03/02 09:20:50;;;;;;;;;;;;;;;21.39;40.83;102188.13;5080527;28;1977;-72
2022/03/02 09:23:16;;;;;;;;;;;;;;;21.38;40.88;102187.38;5063149;28;1760;-72
2022/03/02 09:25:42;;;;;;;;;;;;;;;21.39;40.97;102188.88;5073148;28;1802;-72
2022/03/02 09:28:09;;;;;;;;;;;;;;;21.41;40.86;102191.91;5055760;28;1929;-72
2022/03/02 09:30:35;;;;;;;;;;;;;;;21.41;40.82;102191.16;5082504;28;2854;-66
2022/03/02 09:33:02;;;;;;;;;;;;;;;21.40;40.83;102189.66;5077124;28;2346;-71
2022/03/02 09:35:28;;;;;;;;;;;;;;;21.38;40.75;102193.13;5074685;28;2367;-73
2022/03/02 09:37:56;;;;;;;;;;;;;;;21.38;40.97;102192.38;5081515;28;2278;-68
2022/03/02 09:40:29;;;;;;;;;;;;;;;21.39;40.82;102188.13;5082110;28;2275;-68
2022/03/02 09:42:59;;;;;;;;;;;;;;;21.40;40.83;102183.88;5083199;28;2165;-69
2022/03/02 09:45:26;;;;;;;;;;;;;;;21.40;40.69;102184.66;5077197;28;1563;-70
2022/03/02 09:47:56;;;;;;;;;;;;;;;21.40;40.72;102183.88;5077922;28;1525;-70
2022/03/02 09:50:23;;;;;;;;;;;;;;;21.40;40.64;102178.13;5084537;28;2232;-69
2022/03/02 09:52:51;;;;;;;;;;;;;;;21.39;40.64;102176.59;5075414;28;1604;-67
2022/03/02 09:55:21;;;;;;;;;;;;;;;21.39;40.72;102176.59;5080702;28;1582;-68
2022/03/02 09:57:57;;;;;;;;;;;;;;;21.38;40.75;102181.63;5075631;28;3029;-69
2022/03/02 10:00:24;;;;;;;;;;;;;;;21.30;39.79;102186.84;5072435;28;3111;-63
2022/03/02 10:02:51;;;;;;;;;;;;;;;21.15;39.09;102182.31;5077413;28;3110;-65
2022/03/02 10:05:22;;;;;;;;;;;;;;;21.19;39.21;102176.06;5075907;28;3103;-65
2022/03/02 10:08:05;;;;;;;;;;;;;;;21.21;39.34;102173.31;5079438;28;2998;-63
2022/03/02 10:10:33;;;;;;;;;;;;;;;21.20;39.31;102175.44;5073679;28;3771;-65
2022/03/02 10:13:01;;;;;;;;;;;;;;;21.20;39.62;102175.44;5077516;28;3409;-64
2022/03/02 10:15:28;;;;;;;;;;;;;;;21.22;39.27;102187.09;5076608;28;2212;-64
2022/03/02 10:18:02;;;;;;;;;;;;;;;21.23;39.73;102177.06;5073355;28;2623;-63
2022/03/02 10:20:29;;;;;;;;;;;;;;;21.22;39.82;102175.56;5075488;28;2021;-63
2022/03/02 10:23:14;;;;;;;;;;;;;;;21.22;40.01;102171.94;5082637;28;2298;-63
2022/03/02 10:25:46;;;;;;;;;;;;;;;21.22;40.02;102172.69;5084140;28;2323;-63
2022/03/02 10:28:15;;;;;;;;;;;;;;;21.26;40.07;102172.22;5078817;28;2272;-62
2022/03/02 10:30:41;;;;;;;;;;;;;;;21.29;40.95;102165.94;5063972;28;1945;-64
2022/03/02 10:33:21;;;;;;;;;;;;;;;21.30;40.72;102155.94;5083494;28;2280;-67
2022/03/02 10:36:04;;;;;;;;;;;;;;;21.33;40.74;102154.66;5079112;28;2453;-66
2022/03/02 10:38:39;;;;;;;;;;;;;;;21.30;40.62;102161.69;5074778;28;1927;-67
2022/03/02 10:41:06;;;;;;;;;;;;;;;21.29;40.43;102151.53;5044971;28;2338;-66
2022/03/02 10:43:38;;;;;;;;;;;;;;;20.08;33.78;102146.53;5058939;28;2332;-66
2022/03/02 10:46:06;;;;;;;;;;;;;;;19.53;32.85;102150.59;5062505;28;2257;-66
2022/03/02 10:48:38;;;;;;;;;;;;;;;20.14;32.09;102148.34;5058784;28;1955;-66
2022/03/02 10:51:10;;;;;;;;;;;;;;;20.61;32.18;102145.72;5054731;28;2264;-68
2022/03/02 10:53:38;;;;;;;;;;;;;;;20.85;33.19;102144.44;5058704;28;2332;-69
2022/03/02 10:56:04;;;;;;;;;;;;;;;20.03;31.43;102139.00;5059518;28;2189;-68
2022/03/02 10:58:31;;;;;;;;;;;;;;;19.47;29.71;102136.56;5056452;28;2443;-68
2022/03/02 11:01:00;;;;;;;;;;;;;;;19.16;28.39;102142.25;5055094;28;2221;-67
2022/03/02 11:03:27;;;;;;;;;;;;;;;19.02;27.39;102133.38;5059555;28;2289;-68
2022/03/02 11:05:55;;;;;;;;;;;;;;;18.83;27.43;102142.78;5061126;28;2293;-67
2022/03/02 11:08:23;;;;;;;;;;;;;;;19.42;27.72;102140.50;5043709;28;2269;-67
2022/03/02 11:10:49;;;;;;;;;;;;;;;19.97;27.68;102141.44;5056287;28;2537;-66
2022/03/02 11:13:15;;;;;;;;;;;;;;;20.29;28.36;102137.16;5041862;28;1980;-64
2022/03/02 11:15:49;;;;;;;;;;;;;;;20.45;29.32;102137.47;5059648;28;2419;-63
2022/03/02 11:18:30;;;;;;;;;;;;;;;20.38;31.25;102131.94;5060010;28;2015;-75
2022/03/02 11:21:04;;;;;;;;;;;;;;;19.62;28.48;102136.19;5062657;28;1971;-74
2022/03/02 11:23:31;;;;;;;;;;;;;;;19.10;27.67;102128.19;5056140;28;2166;-75
2022/03/02 11:26:04;;;;;;;;;;;;;;;18.99;27.92;102117.38;5056424;28;1842;-66
2022/03/02 11:28:30;;;;;;;;;;;;;;;19.43;27.55;102119.03;5057965;28;2162;-66
2022/03/02 11:31:04;;;;;;;;;;;;;;;19.66;27.42;102113.47;5056008;28;2173;-65
2022/03/02 11:33:30;;;;;;;;;;;;;;;19.80;28.10;102104.34;5054302;28;2459;-63
2022/03/02 11:36:00;;;;;;;;;;;;;;;19.81;27.70;102102.97;5056735;28;2280;-65
2022/03/02 11:38:28;;;;;;;;;;;;;;;20.02;28.17;102100.13;5062697;28;2415;-64
2022/03/02 11:40:54;;;;;;;;;;;;;;;20.19;28.51;102098.34;5075883;28;2096;-63
2022/03/02 11:43:22;;;;;;;;;;;;;;;20.26;28.97;102094.50;5079274;28;2056;-64
2022/03/02 11:45:50;;;;;;;;;;;;;;;20.31;29.76;102093.38;5073504;28;1846;-62
2022/03/02 11:48:20;;;;;;;;;;;;;;;20.34;30.05;102086.41;5080132;28;2306;-63
2022/03/02 11:51:02;;;;;;;;;;;;;;;20.42;30.91;102086.94;5076691;28;2961;-63
2022/03/02 11:53:29;;;;;;;;;;;;;;;20.53;32.12;102090.47;5062780;28;2732;-75
2022/03/02 11:55:56;;;;;;;;;;;;;;;20.60;32.52;102083.78;5076950;28;2272;-64
2022/03/02 11:58:22;;;;;;;;;;;;;;;20.61;31.90;102085.25;5056498;28;2296;-64
2022/03/02 12:00:48;;;;;;;;;;;;;;;20.61;32.97;102085.25;5075621;28;2300;-73
2022/03/02 12:03:15;;;;;;;;;;;;;;;20.05;31.33;102083.75;5077834;28;2302;-65
2022/03/02 12:05:41;;;;;;;;;;;;;;;20.08;31.18;102076.75;5078472;28;2315;-65
2022/03/02 12:08:09;;;;;;;;;;;;;;;20.35;31.58;102064.13;5073718;28;2676;-64
2022/03/02 12:10:36;;;;;;;;;;;;;;;20.53;33.13;102061.72;5074344;28;2343;-60
2022/03/02 12:13:03;;;;;;;;;;;;;;;20.65;33.31;102062.50;5078940;28;2307;-60
2022/03/02 12:15:42;;;;;;;;;;;;;;;20.71;33.39;102063.66;5076878;28;2224;-60
2022/03/02 12:18:09;;;;;;;;;;;;;;;20.75;33.25;102054.50;5077280;28;2169;-60
2022/03/02 12:20:42;;;;;;;;;;;;;;;20.80;33.42;102044.00;5076891;28;1965;-59
2022/03/02 12:23:08;;;;;;;;;;;;;;;20.83;34.03;102043.53;5079866;28;1569;-60
2022/03/02 12:25:41;;;;;;;;;;;;;;;20.85;33.81;102035.03;5076052;28;1763;-60
2022/03/02 12:28:10;;;;;;;;;;;;;;;20.89;34.17;102035.28;5074942;28;1727;-60
2022/03/02 12:30:36;;;;;;;;;;;;;;;20.92;34.38;102025.38;5074994;28;1930;-60
2022/03/02 12:33:03;;;;;;;;;;;;;;;20.90;34.61;102025.25;5074228;28;1645;-60
2022/03/02 12:35:29;;;;;;;;;;;;;;;20.98;34.66;102024.25;5056894;28;1736;-60
2022/03/02 12:37:56;;;;;;;;;;;;;;;21.01;34.53;102023.03;5075003;28;1703;-60
2022/03/02 12:40:26;;;;;;;;;;;;;;;21.03;34.95;102023.91;5073615;28;1905;-60
2022/03/02 12:42:53;;;;;;;;;;;;;;;21.05;34.96;102017.50;5073641;28;1751;-60
2022/03/02 12:45:20;;;;;;;;;;;;;;;21.05;35.23;102017.50;5061525;28;1677;-60
2022/03/02 12:47:46;;;;;;;;;;;;;;;21.04;35.47;102013.13;5077219;28;2469;-60
2022/03/02 12:50:13;;;;;;;;;;;;;;;21.10;35.32;102016.38;5075139;28;2398;-60